Time;durP1;ratioP1;P1;durP2;ratioP2;P2;SDS_P1;SDS_P2;PMS_P1;PMS_P2;Temp;Humidity;BMP_temperature;BMP_pressure;BME280_temperature;BME280_humidity;BME280_pressure;Samples;Min_cycle;Max_cycle;Signal;HPM_P1;HPM_P2
2022/08/28 00:00:33;;;;;;;8.20;2.60;;;19.70;56.70;;;;;;5074189;28;20021;-74
2022/08/28 00:02:59;;;;;;;7.63;2.40;;;19.70;57.00;;;;;;5075146;28;20029;-74
2022/08/28 00:05:28;;;;;;;5.38;2.42;;;19.70;57.20;;;;;;5075088;28;20052;-73
2022/08/28 00:07:54;;;;;;;5.80;2.45;;;19.70;57.30;;;;;;5075047;28;20017;-74
2022/08/28 00:10:22;;;;;;;8.73;2.80;;;19.70;57.50;;;;;;5074117;28;20033;-74
2022/08/28 00:12:50;;;;;;;6.93;3.17;;;19.70;57.50;;;;;;5074967;28;20017;-74
2022/08/28 00:15:20;;;;;;;5.70;2.20;;;19.70;57.50;;;;;;5074799;28;20021;-74
2022/08/28 00:17:46;;;;;;;7.13;2.67;;;19.70;57.70;;;;;;5074903;28;20017;-74
2022/08/28 00:20:14;;;;;;;8.10;2.47;;;19.60;57.90;;;;;;5073790;28;20492;-74
2022/08/28 00:22:40;;;;;;;5.78;2.60;;;19.60;58.00;;;;;;5073748;28;20085;-74
2022/08/28 00:25:08;;;;;;;10.65;2.90;;;19.60;58.10;;;;;;5074731;28;20021;-74
2022/08/28 00:27:53;;;;;;;11.18;3.10;;;19.60;58.10;;;;;;5073753;28;20051;-74
2022/08/28 00:30:23;;;;;;;9.25;2.47;;;19.60;58.20;;;;;;5074638;28;20059;-74
2022/08/28 00:32:49;;;;;;;6.53;2.55;;;19.60;58.50;;;;;;5073524;28;20025;-74
2022/08/28 00:35:16;;;;;;;5.75;2.50;;;19.60;58.40;;;;;;5040354;28;20025;-74
2022/08/28 00:37:43;;;;;;;4.85;2.70;;;19.50;58.50;;;;;;5073634;28;20017;-74
2022/08/28 00:40:10;;;;;;;7.55;2.70;;;19.50;58.90;;;;;;5073410;28;20059;-74
2022/08/28 00:42:37;;;;;;;7.65;2.60;;;19.40;59.30;;;;;;5074512;28;20032;-75
2022/08/28 00:45:04;;;;;;;6.70;2.75;;;19.30;59.30;;;;;;5074294;28;20029;-74
2022/08/28 00:47:30;;;;;;;7.45;2.70;;;19.30;59.30;;;;;;5074242;28;20024;-74
2022/08/28 00:49:56;;;;;;;8.05;3.03;;;19.30;59.60;;;;;;5073305;28;20064;-74
2022/08/28 00:52:25;;;;;;;4.65;2.15;;;19.30;59.60;;;;;;5074168;28;20033;-74
2022/08/28 00:54:56;;;;;;;5.50;2.50;;;19.30;59.70;;;;;;5074232;28;20021;-74
2022/08/28 00:57:25;;;;;;;6.05;2.50;;;19.30;59.60;;;;;;5073923;28;20102;-74
2022/08/28 00:59:52;;;;;;;6.97;2.35;;;19.20;59.70;;;;;;5073153;28;20017;-75
2022/08/28 01:02:18;;;;;;;6.50;2.83;;;19.20;59.90;;;;;;5072953;28;20017;-74
2022/08/28 01:04:44;;;;;;;10.70;3.05;;;19.10;60.10;;;;;;5073976;28;20047;-75
2022/08/28 01:07:13;;;;;;;7.60;2.70;;;19.10;60.10;;;;;;5073910;28;20108;-74
2022/08/28 01:09:45;;;;;;;10.10;3.10;;;19.10;60.20;;;;;;5056437;28;20029;-74
2022/08/28 01:12:18;;;;;;;8.65;2.90;;;19.10;60.10;;;;;;5073856;28;20025;-74
2022/08/28 01:14:46;;;;;;;5.35;2.72;;;19.10;60.10;;;;;;5073771;28;20029;-74
2022/08/28 01:17:14;;;;;;;8.50;2.60;;;19.00;60.20;;;;;;5072642;28;20499;-74
2022/08/28 01:19:45;;;;;;;5.30;2.38;;;19.00;60.30;;;;;;5073705;28;20107;-74
2022/08/28 01:22:23;;;;;;;6.28;2.60;;;19.00;60.40;;;;;;5073649;28;20055;-74
2022/08/28 01:24:51;;;;;;;4.60;2.58;;;18.90;60.70;;;;;;5073664;28;20031;-74
2022/08/28 01:27:18;;;;;;;6.40;2.50;;;18.90;60.70;;;;;;5073168;28;20057;-74
2022/08/28 01:29:43;;;;;;;8.50;2.90;;;18.90;60.80;;;;;;5056043;28;20029;-74
2022/08/28 01:32:09;;;;;;;8.80;2.83;;;18.90;60.90;;;;;;5073494;28;20061;-74
2022/08/28 01:34:35;;;;;;;5.82;2.47;;;18.80;61.00;;;;;;5073476;28;20032;-75
2022/08/28 01:37:00;;;;;;;8.98;2.58;;;18.90;61.00;;;;;;5072315;28;20021;-75
2022/08/28 01:39:27;;;;;;;5.53;2.63;;;18.80;61.10;;;;;;5073416;28;20028;-74
2022/08/28 01:41:54;;;;;;;6.40;2.53;;;18.80;61.30;;;;;;5073384;28;20096;-74
2022/08/28 01:44:23;;;;;;;5.88;2.28;;;18.80;61.40;;;;;;5072492;28;20030;-75
2022/08/28 01:46:51;;;;;;;6.25;2.30;;;18.80;61.30;;;;;;5073328;28;20056;-75
2022/08/28 01:49:18;;;;;;;6.85;2.80;;;18.80;62.00;;;;;;5073302;28;20512;-74
2022/08/28 01:51:44;;;;;;;7.53;2.33;;;18.80;61.30;;;;;;5073219;28;20045;-75
2022/08/28 01:54:10;;;;;;;7.80;2.60;;;18.80;61.30;;;;;;5073231;28;20029;-74
2022/08/28 01:56:37;;;;;;;6.57;2.70;;;18.80;61.20;;;;;;5072044;28;20534;-74
2022/08/28 01:59:06;;;;;;;7.20;2.72;;;18.80;61.20;;;;;;5073139;28;20025;-74
2022/08/28 02:01:32;;;;;;;8.25;2.50;;;18.80;61.20;;;;;;5072913;28;20029;-74
2022/08/28 02:03:59;;;;;;;6.63;2.80;;;18.70;61.20;;;;;;5072225;28;20032;-74
2022/08/28 02:06:25;;;;;;;10.18;2.72;;;18.70;61.30;;;;;;5073086;28;20080;-74
2022/08/28 02:08:54;;;;;;;10.82;2.88;;;18.70;61.60;;;;;;5073034;28;20024;-74
2022/08/28 02:11:22;;;;;;;5.60;2.58;;;18.60;61.70;;;;;;5073086;28;20025;-74
2022/08/28 02:13:49;;;;;;;6.38;2.45;;;18.60;61.70;;;;;;5073032;28;20468;-74
2022/08/28 02:16:15;;;;;;;7.18;2.70;;;18.60;61.70;;;;;;5071967;28;20033;-74
2022/08/28 02:18:40;;;;;;;8.63;2.85;;;18.60;61.60;;;;;;5072091;28;20056;-74
2022/08/28 02:21:08;;;;;;;5.38;2.35;;;18.60;61.60;;;;;;5073082;28;20040;-74
2022/08/28 02:23:34;;;;;;;9.65;2.58;;;18.60;61.70;;;;;;5073052;28;20025;-74
2022/08/28 02:26:00;;;;;;;6.82;2.67;;;18.60;61.60;;;;;;5072116;28;20029;-74
2022/08/28 02:28:26;;;;;;;6.82;2.40;;;18.60;61.80;;;;;;5071874;28;20032;-74
2022/08/28 02:30:51;;;;;;;6.78;2.60;;;18.50;61.90;;;;;;5073030;28;20040;-73
2022/08/28 02:33:17;;;;;;;4.90;2.80;;;18.60;62.20;;;;;;5072979;28;20049;-73
2022/08/28 02:35:43;;;;;;;7.82;2.50;;;18.50;62.30;;;;;;5071685;28;20029;-74
2022/08/28 02:38:09;;;;;;;7.50;2.47;;;18.50;62.20;;;;;;5072527;28;20052;-73
2022/08/28 02:40:35;;;;;;;7.03;2.50;;;18.60;62.20;;;;;;5076666;28;20025;-73
2022/08/28 02:43:03;;;;;;;8.52;3.90;;;18.50;62.00;;;;;;5076672;28;20044;-73
2022/08/28 02:45:29;;;;;;;6.93;2.95;;;18.50;62.10;;;;;;5076583;28;20021;-73
2022/08/28 02:47:55;;;;;;;8.88;2.85;;;18.50;62.00;;;;;;5076573;28;20079;-74
2022/08/28 02:50:22;;;;;;;5.95;2.60;;;18.50;62.00;;;;;;5076534;28;20028;-74
2022/08/28 02:52:50;;;;;;;8.52;2.80;;;18.50;62.00;;;;;;5076457;28;20139;-74
2022/08/28 02:55:17;;;;;;;9.20;2.88;;;18.50;62.00;;;;;;5076467;28;20021;-74
2022/08/28 02:57:44;;;;;;;7.68;2.90;;;18.50;62.00;;;;;;5076245;28;20128;-74
2022/08/28 03:00:14;;;;;;;6.97;2.55;;;18.40;62.00;;;;;;5076347;28;20018;-74
2022/08/28 03:02:41;;;;;;;8.77;2.90;;;18.40;62.10;;;;;;5076377;28;20073;-74
2022/08/28 03:05:08;;;;;;;8.43;3.00;;;18.40;62.10;;;;;;5076221;28;20055;-74
2022/08/28 03:07:34;;;;;;;8.23;3.00;;;18.30;62.20;;;;;;5075235;28;20029;-74
2022/08/28 03:10:00;;;;;;;8.98;2.60;;;18.30;62.20;;;;;;5075142;28;20036;-74
2022/08/28 03:12:26;;;;;;;5.95;2.50;;;18.30;62.20;;;;;;5075134;28;20033;-74
2022/08/28 03:14:52;;;;;;;5.20;2.55;;;18.30;62.30;;;;;;5075192;28;20033;-74
2022/08/28 03:17:18;;;;;;;9.75;3.05;;;18.30;62.30;;;;;;5075915;28;20108;-74
2022/08/28 03:19:44;;;;;;;6.85;2.50;;;18.30;62.40;;;;;;5075980;28;20045;-74
2022/08/28 03:22:11;;;;;;;6.20;2.33;;;18.30;62.50;;;;;;5074966;28;20025;-74
2022/08/28 03:24:37;;;;;;;8.27;2.70;;;18.30;62.60;;;;;;5075830;28;20021;-74
2022/08/28 03:27:03;;;;;;;7.70;2.50;;;18.20;62.50;;;;;;5075787;28;20083;-74
2022/08/28 03:29:30;;;;;;;5.65;2.33;;;18.20;62.40;;;;;;5074794;28;20088;-74
2022/08/28 03:31:56;;;;;;;5.30;2.63;;;18.20;62.50;;;;;;5074877;28;20025;-74
2022/08/28 03:34:21;;;;;;;5.57;2.40;;;18.20;62.70;;;;;;5074670;28;20052;-74
2022/08/28 03:36:47;;;;;;;5.03;2.35;;;18.20;62.70;;;;;;5074595;28;20044;-74
2022/08/28 03:39:13;;;;;;;7.60;2.78;;;18.10;62.80;;;;;;5075588;28;20033;-74
2022/08/28 03:41:39;;;;;;;6.32;2.22;;;18.10;62.90;;;;;;5074557;28;20036;-74
2022/08/28 03:44:05;;;;;;;5.20;2.60;;;18.10;62.80;;;;;;5074592;28;20028;-74
2022/08/28 03:46:31;;;;;;;5.53;2.38;;;18.10;62.90;;;;;;5075490;28;20419;-74
2022/08/28 03:48:58;;;;;;;7.43;2.53;;;18.10;63.00;;;;;;5075067;28;20044;-74
2022/08/28 03:51:27;;;;;;;7.20;2.58;;;18.10;63.00;;;;;;5075364;28;20029;-74
2022/08/28 03:53:53;;;;;;;5.65;2.60;;;18.10;63.00;;;;;;5075301;28;20079;-74
2022/08/28 03:56:27;;;;;;;6.07;2.22;;;18.10;63.20;;;;;;5075046;28;20048;-74
2022/08/28 03:58:56;;;;;;;6.70;2.75;;;18.10;63.20;;;;;;5075307;28;20028;-74
2022/08/28 04:01:22;;;;;;;6.88;2.53;;;18.10;63.30;;;;;;5074234;28;20096;-74
2022/08/28 04:03:48;;;;;;;5.32;2.67;;;18.10;63.40;;;;;;5075169;28;20032;-74
2022/08/28 04:06:14;;;;;;;5.43;2.50;;;18.10;63.50;;;;;;5074153;28;20029;-74
2022/08/28 04:08:40;;;;;;;6.32;2.60;;;18.10;63.40;;;;;;5075213;28;20025;-74
2022/08/28 04:11:06;;;;;;;6.20;2.33;;;18.10;63.50;;;;;;5074015;28;20025;-74
2022/08/28 04:13:32;;;;;;;7.15;2.97;;;18.10;63.50;;;;;;5074961;28;20025;-74
2022/08/28 04:16:09;;;;;;;7.03;2.65;;;18.10;63.60;;;;;;5074850;28;20037;-74
2022/08/28 04:18:36;;;;;;;7.18;2.63;;;18.20;63.70;;;;;;5074885;28;20028;-74
2022/08/28 04:21:08;;;;;;;9.80;2.72;;;18.20;63.70;;;;;;5074810;28;20027;-74
2022/08/28 04:23:36;;;;;;;7.65;2.90;;;18.20;63.80;;;;;;5073797;28;20024;-74
2022/08/28 04:26:06;;;;;;;7.95;3.03;;;18.20;63.80;;;;;;5073749;28;20029;-74
2022/08/28 04:28:32;;;;;;;7.68;2.88;;;18.10;63.80;;;;;;5074595;28;20059;-74
2022/08/28 04:30:59;;;;;;;6.18;2.75;;;18.10;64.00;;;;;;5074622;28;20087;-74
2022/08/28 04:33:26;;;;;;;7.03;2.90;;;18.10;64.00;;;;;;5074589;28;20033;-74
2022/08/28 04:35:52;;;;;;;8.85;2.53;;;18.20;64.00;;;;;;5074471;28;20029;-74
2022/08/28 04:38:18;;;;;;;7.10;3.33;;;18.20;64.00;;;;;;5073555;28;20036;-74
2022/08/28 04:40:44;;;;;;;11.73;2.65;;;18.20;64.10;;;;;;5073580;28;20085;-74
2022/08/28 04:43:10;;;;;;;7.95;2.70;;;18.10;64.00;;;;;;5074526;28;20071;-74
2022/08/28 04:45:44;;;;;;;8.88;3.03;;;18.10;64.00;;;;;;5074354;28;20027;-74
2022/08/28 04:48:11;;;;;;;4.72;2.58;;;18.10;64.30;;;;;;5074498;28;20025;-74
2022/08/28 04:50:48;;;;;;;7.25;2.88;;;18.10;64.30;;;;;;5073325;28;20033;-74
2022/08/28 04:53:16;;;;;;;9.93;2.60;;;18.10;64.40;;;;;;5074351;28;20041;-74
2022/08/28 04:55:47;;;;;;;8.63;2.80;;;18.10;64.50;;;;;;5073982;28;20482;-74
2022/08/28 04:58:14;;;;;;;8.63;2.80;;;18.10;64.50;;;;;;5073154;28;20016;-74
2022/08/28 05:00:43;;;;;;;6.45;2.45;;;18.10;64.40;;;;;;5073482;28;20025;-74
2022/08/28 05:03:10;;;;;;;6.15;2.28;;;18.00;64.40;;;;;;5073966;28;20036;-74
2022/08/28 05:05:47;;;;;;;4.88;2.38;;;18.00;64.50;;;;;;5073047;28;20021;-74
2022/08/28 05:08:15;;;;;;;6.85;2.28;;;18.10;64.50;;;;;;5073930;28;20024;-74
2022/08/28 05:10:41;;;;;;;6.03;2.40;;;18.00;64.40;;;;;;5073881;28;20029;-74
2022/08/28 05:13:08;;;;;;;5.10;2.53;;;18.00;64.50;;;;;;5072860;28;20021;-74
2022/08/28 05:15:38;;;;;;;7.85;2.10;;;18.00;64.60;;;;;;5072721;28;20028;-74
2022/08/28 05:18:05;;;;;;;7.05;2.55;;;18.00;64.60;;;;;;5073721;28;20099;-74
2022/08/28 05:20:35;;;;;;;6.95;2.55;;;18.00;64.70;;;;;;5072775;28;20025;-74
2022/08/28 05:23:02;;;;;;;4.85;2.20;;;18.00;64.70;;;;;;5073737;28;20021;-74
2022/08/28 05:25:28;;;;;;;8.63;2.50;;;18.00;64.60;;;;;;5073608;28;20028;-74
2022/08/28 05:27:54;;;;;;;5.85;2.40;;;18.00;64.70;;;;;;5073532;28;20021;-74
2022/08/28 05:30:19;;;;;;;4.78;2.42;;;18.00;64.70;;;;;;5072567;28;20031;-74
2022/08/28 05:32:45;;;;;;;6.47;2.40;;;18.00;64.70;;;;;;5073537;28;20047;-74
2022/08/28 05:35:11;;;;;;;5.63;2.22;;;18.00;64.80;;;;;;5073505;28;20036;-74
2022/08/28 05:37:37;;;;;;;5.25;2.22;;;18.00;64.80;;;;;;5073332;28;20032;-74
2022/08/28 05:40:03;;;;;;;6.00;2.60;;;18.00;64.80;;;;;;5072598;28;20051;-74
2022/08/28 05:42:29;;;;;;;5.65;2.58;;;18.00;64.80;;;;;;5072588;28;20040;-74
2022/08/28 05:44:54;;;;;;;5.97;2.17;;;18.00;64.80;;;;;;5073311;28;20025;-74
2022/08/28 05:47:20;;;;;;;8.15;2.40;;;18.00;64.80;;;;;;5073462;28;20052;-74
2022/08/28 05:49:45;;;;;;;8.07;2.65;;;18.00;64.80;;;;;;5073261;28;20028;-74
2022/08/28 05:52:11;;;;;;;6.15;2.83;;;18.00;64.90;;;;;;5073388;28;20032;-74
2022/08/28 05:54:37;;;;;;;10.93;2.92;;;18.00;65.00;;;;;;5073221;28;20029;-74
2022/08/28 05:57:03;;;;;;;11.35;3.20;;;18.00;65.00;;;;;;5072943;28;20049;-74
2022/08/28 05:59:28;;;;;;;9.75;3.03;;;18.00;65.00;;;;;;5072134;28;20025;-74
2022/08/28 06:01:54;;;;;;;6.70;3.25;;;18.00;65.10;;;;;;5072202;28;20025;-73
2022/08/28 06:04:24;;;;;;;11.00;2.75;;;18.00;65.10;;;;;;5073113;28;20029;-74
2022/08/28 06:06:50;;;;;;;6.78;2.47;;;18.00;66.10;;;;;;5073194;28;20037;-73
2022/08/28 06:09:24;;;;;;;6.95;2.88;;;18.00;65.30;;;;;;5073074;28;20021;-73
2022/08/28 06:11:53;;;;;;;6.28;2.92;;;18.10;65.40;;;;;;5073245;28;20081;-74
2022/08/28 06:14:19;;;;;;;8.20;2.63;;;18.10;65.40;;;;;;5077222;28;20476;-74
2022/08/28 06:16:51;;;;;;;8.43;3.30;;;18.10;65.40;;;;;;5076226;28;20037;-73
2022/08/28 06:19:19;;;;;;;6.05;2.72;;;18.10;65.50;;;;;;5076158;28;20021;-74
2022/08/28 06:21:50;;;;;;;10.15;3.50;;;18.10;65.50;;;;;;5076109;28;20021;-74
2022/08/28 06:24:16;;;;;;;7.15;2.30;;;18.10;65.70;;;;;;5076132;28;20114;-74
2022/08/28 06:26:42;;;;;;;5.15;2.65;;;18.10;65.70;;;;;;5076989;28;20025;-74
2022/08/28 06:29:10;;;;;;;8.02;2.67;;;18.20;65.80;;;;;;5076854;28;20029;-73
2022/08/28 06:31:36;;;;;;;7.75;2.63;;;18.20;66.10;;;;;;5077028;28;20017;-73
2022/08/28 06:34:03;;;;;;;5.85;3.00;;;18.20;65.90;;;;;;5076884;28;20032;-74
2022/08/28 06:36:33;;;;;;;4.75;1.98;;;18.20;66.10;;;;;;5075747;28;20145;-74
2022/08/28 06:39:00;;;;;;;10.40;2.42;;;18.20;66.20;;;;;;5076808;28;20024;-74
2022/08/28 06:41:27;;;;;;;5.05;2.10;;;18.30;66.30;;;;;;5076709;28;20045;-75
2022/08/28 06:43:53;;;;;;;6.10;2.00;;;18.30;66.20;;;;;;5075659;28;20037;-75
2022/08/28 06:46:20;;;;;;;4.03;1.55;;;18.30;65.80;;;;;;5076646;28;20029;-75
2022/08/28 06:48:46;;;;;;;5.82;1.48;;;18.30;65.60;;;;;;5076583;28;20032;-75
2022/08/28 06:51:13;;;;;;;5.32;1.80;;;18.30;65.70;;;;;;5076558;28;20021;-75
2022/08/28 06:53:41;;;;;;;7.40;2.25;;;18.40;65.60;;;;;;5076528;28;20028;-75
2022/08/28 06:56:19;;;;;;;6.15;1.90;;;18.40;65.50;;;;;;5076189;28;20064;-75
2022/08/28 06:58:47;;;;;;;5.13;1.50;;;18.50;65.40;;;;;;5075415;28;20031;-75
2022/08/28 07:01:21;;;;;;;5.35;1.60;;;18.50;65.30;;;;;;5075422;28;20071;-74
2022/08/28 07:03:48;;;;;;;5.43;1.67;;;18.50;65.40;;;;;;5076462;28;20472;-74
2022/08/28 07:06:14;;;;;;;3.45;1.70;;;18.60;65.20;;;;;;5076383;28;20029;-74
2022/08/28 07:08:41;;;;;;;6.70;1.90;;;18.60;65.00;;;;;;5076217;28;20088;-74
2022/08/28 07:11:23;;;;;;;12.77;2.53;;;18.60;65.20;;;;;;5076190;28;20045;-74
2022/08/28 07:13:51;;;;;;;8.98;2.13;;;18.70;65.50;;;;;;5076222;28;20108;-74
2022/08/28 07:16:19;;;;;;;4.57;1.55;;;18.70;65.80;;;;;;5075099;28;20025;-74
2022/08/28 07:18:45;;;;;;;5.55;1.70;;;18.80;65.50;;;;;;5075098;28;20059;-74
2022/08/28 07:21:12;;;;;;;5.80;1.88;;;18.80;65.20;;;;;;5074956;28;20021;-74
2022/08/28 07:23:39;;;;;;;10.73;1.75;;;18.80;65.10;;;;;;5057914;28;20028;-73
2022/08/28 07:26:10;;;;;;;7.25;1.83;;;18.80;65.10;;;;;;5074753;28;20021;-73
2022/08/28 07:28:36;;;;;;;3.95;1.42;;;18.90;65.00;;;;;;5075813;28;20025;-73
2022/08/28 07:31:10;;;;;;;8.85;1.75;;;18.90;65.20;;;;;;5075787;28;20032;-73
2022/08/28 07:33:36;;;;;;;7.35;1.55;;;19.00;64.60;;;;;;5075783;28;20077;-73
2022/08/28 07:36:06;;;;;;;3.63;1.10;;;19.00;64.60;;;;;;5075640;28;20035;-73
2022/08/28 07:38:32;;;;;;;6.00;1.50;;;19.10;64.80;;;;;;5075669;28;20017;-73
2022/08/28 07:40:57;;;;;;;4.43;1.60;;;19.10;64.40;;;;;;5074698;28;20036;-73
2022/08/28 07:46:10;;;;;;;5.57;1.45;;;19.20;63.60;;;;;;5075647;28;20064;-73
2022/08/28 07:48:37;;;;;;;4.22;1.40;;;19.20;64.40;;;;;;5075589;28;20108;-74
2022/08/28 07:51:03;;;;;;;5.45;1.58;;;19.30;64.20;;;;;;5075349;28;20067;-73
2022/08/28 07:53:29;;;;;;;7.60;1.38;;;19.40;64.10;;;;;;5075559;28;20025;-74
2022/08/28 07:55:55;;;;;;;4.68;1.33;;;19.40;63.90;;;;;;5075053;28;20055;-75
2022/08/28 07:58:24;;;;;;;4.75;1.38;;;19.50;63.90;;;;;;5075351;28;20025;-74
2022/08/28 08:00:50;;;;;;;4.00;1.15;;;19.50;62.90;;;;;;5075233;28;20025;-73
2022/08/28 08:03:15;;;;;;;6.25;1.20;;;19.50;62.40;;;;;;5075190;28;20021;-73
2022/08/28 08:05:49;;;;;;;4.60;1.33;;;19.50;63.00;;;;;;5075172;28;20055;-73
2022/08/28 08:08:15;;;;;;;9.30;2.22;;;19.60;63.10;;;;;;5074266;28;20025;-73
2022/08/28 08:10:41;;;;;;;5.88;1.40;;;19.70;64.00;;;;;;5075186;28;20028;-74
2022/08/28 08:13:06;;;;;;;3.08;1.42;;;19.80;63.60;;;;;;5073975;28;20037;-74
2022/08/28 08:15:33;;;;;;;5.05;1.40;;;19.80;62.60;;;;;;5073910;28;20036;-74
2022/08/28 08:17:59;;;;;;;5.15;1.52;;;19.90;62.40;;;;;;5073956;28;20021;-74
2022/08/28 08:20:24;;;;;;;2.88;1.00;;;19.80;62.10;;;;;;5074815;28;20033;-74
2022/08/28 08:22:50;;;;;;;4.18;1.30;;;19.80;61.00;;;;;;5074774;28;20088;-73
2022/08/28 08:25:16;;;;;;;4.65;1.30;;;19.80;61.40;;;;;;5074787;28;20013;-74
2022/08/28 08:27:42;;;;;;;4.30;1.38;;;19.80;61.30;;;;;;5057099;28;20037;-74
2022/08/28 08:30:08;;;;;;;4.03;1.48;;;19.80;61.60;;;;;;5056851;28;20025;-74
2022/08/28 08:32:33;;;;;;;3.95;1.23;;;19.80;61.60;;;;;;5073543;28;20067;-74
2022/08/28 08:34:59;;;;;;;4.05;1.08;;;19.90;61.80;;;;;;5074406;28;20021;-74
2022/08/28 08:37:25;;;;;;;5.80;1.40;;;20.00;61.50;;;;;;5072789;28;20476;-74
2022/08/28 08:39:52;;;;;;;3.15;1.10;;;20.10;60.70;;;;;;5074516;28;20017;-73
2022/08/28 08:42:20;;;;;;;5.50;1.40;;;20.20;60.70;;;;;;5074592;28;20017;-73
2022/08/28 08:44:47;;;;;;;4.97;1.23;;;20.30;59.50;;;;;;5074369;28;20048;-73
2022/08/28 08:47:21;;;;;;;5.68;1.77;;;20.40;60.20;;;;;;5074333;28;20025;-73
2022/08/28 08:50:07;;;;;;;3.55;1.23;;;20.50;59.30;;;;;;5074426;28;20055;-73
2022/08/28 08:53:01;;;;;;;3.50;1.25;;;20.70;58.90;;;;;;5066029;28;20132;-73
2022/08/28 08:55:30;;;;;;;5.28;1.10;;;20.80;57.80;;;;;;5065944;28;20041;-73
2022/08/28 08:57:59;;;;;;;3.80;1.13;;;20.90;57.70;;;;;;5074178;28;20025;-73
2022/08/28 09:00:26;;;;;;;6.40;1.63;;;21.00;58.00;;;;;;5074067;28;20047;-73
2022/08/28 09:03:08;;;;;;;2.78;1.00;;;21.10;57.60;;;;;;5074103;28;20017;-73
2022/08/28 09:05:48;;;;;;;4.72;1.05;;;21.30;57.90;;;;;;5074100;28;20021;-73
2022/08/28 09:08:24;;;;;;;1.83;1.00;;;21.40;56.30;;;;;;5073988;28;20025;-74
2022/08/28 09:10:59;;;;;;;2.67;1.10;;;21.40;55.60;;;;;;5073886;28;20023;-73
2022/08/28 09:13:56;;;;;;;2.75;0.95;;;21.20;54.60;;;;;;5073911;28;20013;-73
2022/08/28 09:16:34;;;;;;;5.03;1.20;;;21.20;54.30;;;;;;5072799;28;20049;-73
2022/08/28 09:19:01;;;;;;;4.45;0.90;;;21.20;54.30;;;;;;5073922;28;20025;-74
2022/08/28 09:21:32;;;;;;;5.38;1.45;;;21.30;56.30;;;;;;5073729;28;20021;-74
2022/08/28 09:24:04;;;;;;;3.95;1.30;;;21.40;54.80;;;;;;5072740;28;20036;-74
2022/08/28 09:26:30;;;;;;;3.75;0.90;;;21.60;55.30;;;;;;5073641;28;20025;-74
2022/08/28 09:29:04;;;;;;;5.00;1.00;;;21.60;54.10;;;;;;5073525;28;20028;-74
2022/08/28 09:31:37;;;;;;;2.60;1.00;;;21.70;54.10;;;;;;5072672;28;20175;-74
2022/08/28 09:34:17;;;;;;;5.35;1.25;;;21.60;53.30;;;;;;5072517;28;20029;-74
2022/08/28 09:36:42;;;;;;;3.70;1.00;;;21.70;53.60;;;;;;5073393;28;20025;-74
2022/08/28 09:39:10;;;;;;;6.10;1.10;;;21.60;53.50;;;;;;5072490;28;20158;-74
2022/08/28 09:44:58;;;;;;;3.33;0.85;;;21.60;51.70;;;;;;5073614;28;20036;-74
2022/08/28 09:47:43;;;;;;;4.70;1.05;;;21.50;53.40;;;;;;5073214;28;20025;-74
2022/08/28 09:50:37;;;;;;;6.10;1.25;;;21.60;53.40;;;;;;5072293;28;20032;-73
2022/08/28 09:53:08;;;;;;;7.13;1.50;;;21.70;53.10;;;;;;5073336;28;20029;-73
2022/08/28 09:55:56;;;;;;;6.07;1.10;;;21.80;53.30;;;;;;5072892;28;20064;-73
2022/08/28 09:58:36;;;;;;;4.25;1.27;;;21.90;52.70;;;;;;5073230;28;20089;-74
2022/08/28 10:01:28;;;;;;;2.75;1.10;;;22.00;53.00;;;;;;5073234;28;20044;-74
2022/08/28 10:04:25;;;;;;;3.10;0.63;;;22.00;51.10;;;;;;5073324;28;20122;-74
2022/08/28 10:06:51;;;;;;;2.35;1.05;;;22.00;50.80;;;;;;5073164;28;20059;-74
2022/08/28 10:09:36;;;;;;;3.08;1.38;;;22.00;50.90;;;;;;5073244;28;20032;-74
2022/08/28 10:12:04;;;;;;;3.85;1.10;;;22.20;51.90;;;;;;5073186;28;20028;-74
2022/08/28 10:14:49;;;;;;;4.53;0.93;;;22.30;51.60;;;;;;5073057;28;20025;-74
2022/08/28 10:17:37;;;;;;;3.78;1.02;;;22.30;50.80;;;;;;5071953;28;20029;-74
2022/08/28 10:20:18;;;;;;;4.90;1.10;;;22.40;50.90;;;;;;5072236;28;20036;-74
2022/08/28 10:22:56;;;;;;;2.85;0.93;;;22.50;50.20;;;;;;5071996;28;20025;-74
2022/08/28 10:25:25;;;;;;;3.08;0.95;;;22.50;50.30;;;;;;5073126;28;20022;-74
2022/08/28 10:27:59;;;;;;;3.33;1.35;;;22.60;50.20;;;;;;5072946;28;20388;-74
2022/08/28 10:30:28;;;;;;;1.92;1.00;;;22.80;50.20;;;;;;5071909;28;20033;-74
2022/08/28 10:33:17;;;;;;;2.83;1.33;;;22.90;49.40;;;;;;5072872;28;20112;-74
2022/08/28 10:35:49;;;;;;;2.88;0.80;;;23.00;48.90;;;;;;5072820;28;20041;-74
2022/08/28 10:38:20;;;;;;;5.25;1.23;;;23.20;48.90;;;;;;5072856;28;20388;-74
2022/08/28 10:41:03;;;;;;;4.07;1.05;;;23.30;49.10;;;;;;5072864;28;20101;-74
2022/08/28 10:43:36;;;;;;;3.30;0.93;;;23.50;47.80;;;;;;5072767;28;20059;-74
2022/08/28 10:46:25;;;;;;;5.28;1.17;;;23.50;48.20;;;;;;5072818;28;20024;-74
2022/08/28 10:48:58;;;;;;;3.25;0.80;;;23.60;47.30;;;;;;5068726;28;20067;-74
2022/08/28 10:51:39;;;;;;;2.55;0.85;;;23.80;47.40;;;;;;5071740;28;20033;-74
2022/08/28 10:54:29;;;;;;;4.22;0.98;;;23.90;46.50;;;;;;5072792;28;20033;-72
2022/08/28 10:57:19;;;;;;;3.30;0.85;;;24.00;45.20;;;;;;5072400;28;20064;-74
2022/08/28 10:59:49;;;;;;;3.97;1.00;;;24.00;44.10;;;;;;5074204;28;20055;-74
2022/08/28 11:02:18;;;;;;;6.80;1.33;;;23.90;45.40;;;;;;5076322;28;20013;-74
2022/08/28 11:04:46;;;;;;;2.42;1.00;;;24.00;45.70;;;;;;5076341;28;20025;-74
2022/08/28 11:07:20;;;;;;;2.67;0.93;;;24.00;45.70;;;;;;5075232;28;20033;-74
2022/08/28 11:09:47;;;;;;;2.13;0.70;;;24.00;45.60;;;;;;5076249;28;20029;-74
2022/08/28 11:12:17;;;;;;;3.40;1.00;;;24.00;44.90;;;;;;5076169;28;20099;-74
2022/08/28 11:14:48;;;;;;;3.53;1.00;;;23.90;45.10;;;;;;5076136;28;20028;-73
2022/08/28 11:17:37;;;;;;;2.88;0.80;;;23.90;45.80;;;;;;5076059;28;20021;-74
2022/08/28 11:20:24;;;;;;;2.28;0.90;;;23.90;44.60;;;;;;5075931;28;20087;-74
2022/08/28 11:23:06;;;;;;;4.07;1.10;;;23.90;44.10;;;;;;5075945;28;20013;-74
2022/08/28 11:25:53;;;;;;;2.13;0.88;;;23.80;44.80;;;;;;5075026;28;20029;-74
2022/08/28 11:28:25;;;;;;;2.45;0.93;;;23.70;45.30;;;;;;5076026;28;20055;-73
2022/08/28 11:30:57;;;;;;;2.95;0.90;;;23.70;44.70;;;;;;5075844;28;20419;-73
2022/08/28 11:33:34;;;;;;;2.38;1.02;;;23.60;44.90;;;;;;5074773;28;20103;-73
2022/08/28 11:35:59;;;;;;;4.47;1.08;;;23.60;44.70;;;;;;5074643;28;20029;-73
2022/08/28 11:38:40;;;;;;;1.92;0.98;;;23.60;45.00;;;;;;5075818;28;20093;-73
2022/08/28 11:41:16;;;;;;;2.17;0.90;;;23.80;43.70;;;;;;5075661;28;20024;-73
2022/08/28 11:43:44;;;;;;;2.55;0.90;;;24.00;44.10;;;;;;5075760;28;20051;-74
2022/08/28 11:46:26;;;;;;;3.22;0.88;;;24.10;44.00;;;;;;5074554;28;20021;-73
2022/08/28 11:48:58;;;;;;;3.65;1.10;;;24.20;43.80;;;;;;5075558;28;20029;-74
2022/08/28 11:51:41;;;;;;;1.88;0.77;;;24.30;44.10;;;;;;5075499;28;20020;-73
2022/08/28 11:54:36;;;;;;;2.60;1.00;;;24.40;43.90;;;;;;5075518;28;20024;-74
2022/08/28 11:57:13;;;;;;;2.78;0.80;;;24.50;43.10;;;;;;5075097;28;20041;-74
2022/08/28 11:59:57;;;;;;;2.13;0.70;;;24.50;41.60;;;;;;5075347;28;20028;-74
2022/08/28 12:02:38;;;;;;;3.90;1.10;;;24.60;40.90;;;;;;5075199;28;20025;-74
2022/08/28 12:05:29;;;;;;;1.63;0.77;;;24.60;42.20;;;;;;5074192;28;20029;-74
2022/08/28 12:07:56;;;;;;;3.55;0.80;;;24.70;41.70;;;;;;5073965;28;20033;-73
2022/08/28 12:10:23;;;;;;;2.17;0.75;;;24.70;42.00;;;;;;5073863;28;20052;-72
2022/08/28 12:12:51;;;;;;;3.65;1.10;;;24.80;41.40;;;;;;5073970;28;20021;-73
2022/08/28 12:15:26;;;;;;;3.22;0.85;;;24.90;41.10;;;;;;5075043;28;20021;-73
2022/08/28 12:17:55;;;;;;;2.08;0.85;;;24.80;41.60;;;;;;5074857;28;20088;-73
2022/08/28 12:20:33;;;;;;;2.30;0.85;;;24.80;41.40;;;;;;5075000;28;20017;-72
2022/08/28 12:23:02;;;;;;;4.07;0.80;;;24.70;40.20;;;;;;5073845;28;20029;-73
2022/08/28 12:25:42;;;;;;;2.53;0.90;;;24.70;41.00;;;;;;5074783;28;20033;-73
2022/08/28 12:28:21;;;;;;;2.75;0.90;;;24.80;41.70;;;;;;5074711;28;20031;-73
2022/08/28 12:31:03;;;;;;;4.47;1.00;;;25.00;40.70;;;;;;5074733;28;20024;-73
2022/08/28 12:33:35;;;;;;;;;;;25.10;41.50;;;;;;5075100;28;20025;-74
2022/08/28 12:36:05;;;;;;;3.80;1.17;;;25.20;39.70;;;;;;5074512;28;20348;-73
2022/08/28 12:38:33;;;;;;;2.65;0.70;;;25.20;40.90;;;;;;5074566;28;20041;-74
2022/08/28 12:41:01;;;;;;;4.32;0.90;;;25.30;40.80;;;;;;5074533;28;20484;-74
2022/08/28 12:43:37;;;;;;;3.20;1.10;;;25.40;40.70;;;;;;5074462;28;20056;-74
2022/08/28 12:46:07;;;;;;;2.30;0.80;;;25.50;40.90;;;;;;5074603;28;20025;-74
2022/08/28 12:48:47;;;;;;;2.20;0.88;;;25.50;40.60;;;;;;5074420;28;20035;-73
2022/08/28 12:51:18;;;;;;;3.28;1.05;;;25.40;40.20;;;;;;5073315;28;20025;-74
2022/08/28 12:53:47;;;;;;;2.42;0.90;;;25.30;40.50;;;;;;5074289;28;20024;-74
2022/08/28 12:56:17;;;;;;;3.17;0.80;;;25.30;41.00;;;;;;5073987;28;20068;-74
2022/08/28 12:58:44;;;;;;;3.28;1.08;;;25.40;40.80;;;;;;5073131;28;20119;-73
2022/08/28 13:01:14;;;;;;;3.78;0.93;;;25.50;40.10;;;;;;5074153;28;20025;-73
2022/08/28 13:04:04;;;;;;;2.63;0.90;;;25.60;39.60;;;;;;5074196;28;20468;-73
2022/08/28 13:06:34;;;;;;;2.65;0.82;;;25.80;39.30;;;;;;5070959;28;20128;-73